createdAt,value
2017-10-06T00:02:14.686Z,6.50
2017-10-06T00:04:41.299Z,6.70
2017-10-06T00:07:07.907Z,6.87
2017-10-06T00:09:34.530Z,7.20
2017-10-06T00:12:01.155Z,6.90
2017-10-06T00:14:27.766Z,6.80
2017-10-06T00:16:54.394Z,6.90
2017-10-06T00:19:20.993Z,6.37
2017-10-06T00:21:47.617Z,6.63
2017-10-06T00:24:14.214Z,7.70
2017-10-06T00:26:40.809Z,7.20
2017-10-06T00:29:07.429Z,6.60
2017-10-06T00:31:34.049Z,6.50
2017-10-06T00:34:00.670Z,7.23
2017-10-06T00:36:27.272Z,6.87
2017-10-06T00:38:53.893Z,7.47
2017-10-06T00:41:20.501Z,7.27
2017-10-06T00:43:47.118Z,7.40
2017-10-06T00:46:13.713Z,7.27
2017-10-06T00:48:40.334Z,7.10
2017-10-06T00:51:06.933Z,7.77
2017-10-06T00:53:33.565Z,6.80
2017-10-06T00:56:00.163Z,7.20
2017-10-06T00:58:26.792Z,6.80
2017-10-06T01:00:53.408Z,6.20
2017-10-06T01:03:20.034Z,6.40
2017-10-06T01:05:46.665Z,7.00
2017-10-06T01:08:13.285Z,6.27
2017-10-06T01:10:40.009Z,6.67
2017-10-06T01:13:06.637Z,6.80
2017-10-06T01:15:33.232Z,6.50
2017-10-06T01:17:59.833Z,6.90
2017-10-06T01:20:26.459Z,6.27
2017-10-06T01:22:53.057Z,6.60
2017-10-06T01:25:19.665Z,6.77
2017-10-06T01:27:46.285Z,6.10
2017-10-06T01:30:12.886Z,5.70
2017-10-06T01:32:39.481Z,6.40
2017-10-06T01:35:06.120Z,6.53
2017-10-06T01:37:32.734Z,6.83
2017-10-06T01:39:59.358Z,6.03
2017-10-06T01:42:25.961Z,6.13
2017-10-06T01:44:52.561Z,5.20
2017-10-06T01:47:19.196Z,6.40
2017-10-06T01:49:45.802Z,6.30
2017-10-06T01:52:12.389Z,5.27
2017-10-06T01:54:39.010Z,5.50
2017-10-06T01:57:05.625Z,6.50
2017-10-06T01:59:32.254Z,5.53
2017-10-06T02:01:58.854Z,4.77
2017-10-06T02:04:25.470Z,5.63
2017-10-06T02:06:52.073Z,6.80
2017-10-06T02:09:18.677Z,6.10
2017-10-06T02:11:45.288Z,6.50
2017-10-06T02:14:11.906Z,6.27
2017-10-06T02:16:38.507Z,6.30
2017-10-06T02:19:05.109Z,6.40
2017-10-06T02:21:31.710Z,6.90
2017-10-06T02:23:58.325Z,6.40
2017-10-06T02:26:25.009Z,6.10
2017-10-06T02:28:51.606Z,6.80
2017-10-06T02:31:18.203Z,6.83
2017-10-06T02:33:44.809Z,7.00
2017-10-06T02:36:11.429Z,6.40
2017-10-06T02:38:38.028Z,6.70
2017-10-06T02:41:04.653Z,6.83
2017-10-06T02:43:31.244Z,7.33
2017-10-06T02:45:57.877Z,7.43
2017-10-06T02:48:24.499Z,6.53
2017-10-06T02:50:51.096Z,6.90
2017-10-06T02:53:17.698Z,6.67
2017-10-06T02:55:44.327Z,7.50
2017-10-06T02:58:11.043Z,7.80
2017-10-06T03:00:37.632Z,7.87
2017-10-06T03:03:04.261Z,8.13
2017-10-06T03:05:30.959Z,8.03
2017-10-06T03:07:57.580Z,8.27
2017-10-06T03:10:24.181Z,8.17
2017-10-06T03:12:50.793Z,7.90
2017-10-06T03:15:17.419Z,8.40
2017-10-06T03:17:44.040Z,9.40
2017-10-06T03:20:10.662Z,9.00
2017-10-06T03:22:37.289Z,8.60
2017-10-06T03:25:03.901Z,8.80
2017-10-06T03:27:30.529Z,8.20
2017-10-06T03:29:57.144Z,9.53
2017-10-06T03:32:23.757Z,8.10
2017-10-06T03:34:50.357Z,9.30
2017-10-06T03:37:17.001Z,8.57
2017-10-06T03:39:43.600Z,8.83
2017-10-06T03:42:10.204Z,8.03
2017-10-06T03:44:36.830Z,9.20
2017-10-06T03:47:03.432Z,9.27
2017-10-06T03:49:30.041Z,7.53
2017-10-06T03:51:56.644Z,7.80
2017-10-06T03:54:23.268Z,8.23
2017-10-06T03:56:49.887Z,8.10
2017-10-06T03:59:16.484Z,7.57
2017-10-06T04:01:43.116Z,7.80
2017-10-06T04:04:09.712Z,7.60
2017-10-06T04:06:36.312Z,7.47
2017-10-06T04:09:02.937Z,8.73
2017-10-06T04:11:29.543Z,8.13
2017-10-06T04:13:56.157Z,7.70
2017-10-06T04:16:22.753Z,9.10
2017-10-06T04:18:49.390Z,8.73
2017-10-06T04:21:16.110Z,8.70
2017-10-06T04:23:42.697Z,9.10
2017-10-06T04:26:09.314Z,8.87
2017-10-06T04:28:35.933Z,8.03
2017-10-06T04:31:02.558Z,9.37
2017-10-06T04:33:29.156Z,7.80
2017-10-06T04:35:55.779Z,8.47
2017-10-06T04:38:22.400Z,9.27
2017-10-06T04:40:49.004Z,8.40
2017-10-06T04:43:15.603Z,8.77
2017-10-06T04:45:42.222Z,9.63
2017-10-06T04:48:08.868Z,9.03
2017-10-06T04:50:35.509Z,9.40
2017-10-06T04:53:02.104Z,8.33
2017-10-06T04:55:28.709Z,9.00
2017-10-06T04:57:55.332Z,8.60
2017-10-06T05:00:21.936Z,8.90
2017-10-06T05:02:48.532Z,8.67
2017-10-06T05:05:15.156Z,8.57
2017-10-06T05:07:41.772Z,8.67
2017-10-06T05:10:08.377Z,9.87
2017-10-06T05:12:34.989Z,9.37
2017-10-06T05:15:01.600Z,8.70
2017-10-06T05:17:28.228Z,9.43
2017-10-06T05:19:54.832Z,8.33
2017-10-06T05:22:21.438Z,8.70
2017-10-06T05:24:48.062Z,8.63
2017-10-06T05:27:14.665Z,8.93
2017-10-06T05:32:14.492Z,7.50
2017-10-06T05:34:41.113Z,8.27
2017-10-06T05:37:07.717Z,8.20
2017-10-06T05:39:34.336Z,9.67
2017-10-06T05:42:00.980Z,10.20
2017-10-06T05:44:27.577Z,8.80
2017-10-06T05:46:54.172Z,8.77
2017-10-06T05:49:20.800Z,9.23
2017-10-06T05:51:47.400Z,8.80
2017-10-06T05:54:14.180Z,9.00
2017-10-06T05:56:40.781Z,9.43
2017-10-06T05:59:07.444Z,7.77
2017-10-06T06:01:34.042Z,9.20
2017-10-06T06:04:00.660Z,8.70
2017-10-06T06:06:27.293Z,9.47
2017-10-06T06:08:53.901Z,9.60
2017-10-06T06:11:20.509Z,10.33
2017-10-06T06:13:47.128Z,10.57
2017-10-06T06:16:13.732Z,8.60
2017-10-06T06:18:40.353Z,8.27
2017-10-06T06:21:06.982Z,8.50
2017-10-06T06:23:33.625Z,6.80
2017-10-06T06:26:00.206Z,7.13
2017-10-06T06:28:26.816Z,7.70
2017-10-06T06:30:53.437Z,7.67
2017-10-06T06:33:20.176Z,8.87
2017-10-06T06:35:46.802Z,6.83
2017-10-06T06:38:13.424Z,7.33
2017-10-06T06:40:40.049Z,7.40
2017-10-06T06:43:06.639Z,7.70
2017-10-06T06:45:33.261Z,7.40
2017-10-06T06:47:59.886Z,7.83
2017-10-06T06:50:26.483Z,7.50
2017-10-06T06:52:53.105Z,7.03
2017-10-06T06:55:19.705Z,6.90
2017-10-06T06:57:46.324Z,7.07
2017-10-06T07:00:12.925Z,6.70
2017-10-06T07:02:39.540Z,6.80
2017-10-06T07:05:06.168Z,6.00
2017-10-06T07:07:32.795Z,6.77
2017-10-06T07:09:59.393Z,6.53
2017-10-06T07:14:59.142Z,5.80
2017-10-06T07:17:25.737Z,6.37
2017-10-06T07:19:52.356Z,6.00
2017-10-06T07:22:18.972Z,7.00
2017-10-06T07:24:45.572Z,6.37
2017-10-06T07:27:12.244Z,7.30
2017-10-06T07:29:38.826Z,5.83
2017-10-06T07:32:05.429Z,6.00
2017-10-06T07:34:32.054Z,6.60
2017-10-06T07:36:58.653Z,6.50
2017-10-06T07:39:25.274Z,5.70
2017-10-06T07:41:51.872Z,4.93
2017-10-06T07:44:18.468Z,5.90
2017-10-06T07:46:45.085Z,5.90
2017-10-06T07:49:11.675Z,5.67
2017-10-06T07:51:38.305Z,6.57
2017-10-06T07:54:04.924Z,5.40
2017-10-06T07:56:31.522Z,6.73
2017-10-06T07:58:58.116Z,7.00
2017-10-06T08:01:24.745Z,6.10
2017-10-06T08:03:51.336Z,5.60
2017-10-06T08:06:18.595Z,5.77
2017-10-06T08:08:45.392Z,5.50
2017-10-06T08:11:12.115Z,5.40
2017-10-06T08:13:38.793Z,6.13
2017-10-06T08:16:05.417Z,6.23
2017-10-06T08:18:32.052Z,5.80
2017-10-06T08:20:58.644Z,6.03
2017-10-06T08:23:25.297Z,5.80
2017-10-06T08:25:51.952Z,5.90
2017-10-06T08:28:18.604Z,6.00
2017-10-06T08:30:45.250Z,6.23
2017-10-06T08:33:11.852Z,6.07
2017-10-06T08:35:38.503Z,6.10
2017-10-06T08:38:05.095Z,6.60
2017-10-06T08:40:31.685Z,6.10
2017-10-06T08:42:58.309Z,6.40
2017-10-06T08:45:24.900Z,6.80
2017-10-06T08:47:51.506Z,7.50
2017-10-06T08:50:18.121Z,6.47
2017-10-06T08:52:44.736Z,7.03
2017-10-06T08:55:11.326Z,6.07
2017-10-06T08:57:37.944Z,7.03
2017-10-06T09:00:04.538Z,6.53
2017-10-06T09:02:31.148Z,6.70
2017-10-06T09:04:57.756Z,6.80
2017-10-06T09:07:24.372Z,6.60
2017-10-06T09:09:50.968Z,5.37
2017-10-06T09:12:23.411Z,5.70
2017-10-06T09:14:50.003Z,5.93
2017-10-06T09:17:16.626Z,5.60
2017-10-06T09:19:43.257Z,5.90
2017-10-06T09:22:09.869Z,6.30
2017-10-06T09:24:36.490Z,6.00
2017-10-06T09:27:03.104Z,6.20
2017-10-06T09:29:29.741Z,5.93
2017-10-06T09:31:56.341Z,6.00
2017-10-06T09:34:22.937Z,5.90
2017-10-06T09:36:49.568Z,6.27
2017-10-06T09:39:16.191Z,6.30
2017-10-06T09:41:42.804Z,6.10
2017-10-06T09:44:09.493Z,6.47
2017-10-06T09:46:36.095Z,5.27
2017-10-06T09:49:02.741Z,5.80
2017-10-06T09:51:29.353Z,5.20
2017-10-06T09:53:55.956Z,6.47
2017-10-06T09:56:22.572Z,5.70
2017-10-06T09:58:49.168Z,5.93
2017-10-06T10:01:15.782Z,6.20
2017-10-06T10:03:42.377Z,6.03
2017-10-06T10:06:08.989Z,6.30
2017-10-06T10:08:35.606Z,5.90
2017-10-06T10:11:02.205Z,6.80
2017-10-06T10:13:28.820Z,5.90
2017-10-06T10:15:55.417Z,6.30
2017-10-06T10:18:22.034Z,5.70
2017-10-06T10:20:48.626Z,6.03
2017-10-06T10:23:15.247Z,6.10
2017-10-06T10:25:41.872Z,4.93
2017-10-06T10:28:08.464Z,6.13
2017-10-06T10:30:35.065Z,5.80
2017-10-06T10:33:01.681Z,5.63
2017-10-06T10:35:28.284Z,5.47
2017-10-06T10:37:54.880Z,6.20
2017-10-06T10:40:21.496Z,6.57
2017-10-06T10:42:48.133Z,6.80
2017-10-06T10:45:14.729Z,7.00
2017-10-06T10:47:41.329Z,6.53
2017-10-06T10:50:07.964Z,6.47
2017-10-06T10:52:34.554Z,6.47
2017-10-06T10:55:01.181Z,6.23
2017-10-06T10:57:27.773Z,6.60
2017-10-06T10:59:54.372Z,6.17
2017-10-06T11:02:20.990Z,6.50
2017-10-06T11:04:47.584Z,6.00
2017-10-06T11:07:14.194Z,5.90
2017-10-06T11:09:40.815Z,5.50
2017-10-06T11:12:07.424Z,5.70
2017-10-06T11:14:34.041Z,6.37
2017-10-06T11:17:00.637Z,6.17
2017-10-06T11:19:27.248Z,5.83
2017-10-06T11:21:53.855Z,6.33
2017-10-06T11:24:20.473Z,5.77
2017-10-06T11:26:47.064Z,5.73
2017-10-06T11:29:13.660Z,5.70
2017-10-06T11:31:40.276Z,5.60
2017-10-06T11:34:06.879Z,4.13
2017-10-06T11:36:33.498Z,4.63
2017-10-06T11:39:00.097Z,4.63
2017-10-06T11:41:26.879Z,4.77
2017-10-06T11:43:53.464Z,5.13
2017-10-06T11:46:20.085Z,4.50
2017-10-06T11:48:46.703Z,3.67
2017-10-06T11:51:13.300Z,3.50
2017-10-06T11:53:39.900Z,3.50
2017-10-06T11:56:06.536Z,4.33
2017-10-06T11:58:33.137Z,2.97
2017-10-06T12:00:59.729Z,3.63
2017-10-06T12:03:26.344Z,3.80
2017-10-06T12:05:52.977Z,3.00
2017-10-06T12:08:19.569Z,3.87
2017-10-06T12:10:46.169Z,3.00
2017-10-06T12:13:12.793Z,3.37
2017-10-06T12:15:39.408Z,3.00
2017-10-06T12:18:06.004Z,2.63
2017-10-06T12:20:32.623Z,3.30
2017-10-06T12:22:59.240Z,4.17
2017-10-06T12:25:25.885Z,4.00
2017-10-06T12:27:52.504Z,3.50
2017-10-06T12:30:19.109Z,3.40
2017-10-06T12:32:45.710Z,4.13
2017-10-06T12:35:12.330Z,3.90
2017-10-06T12:37:38.941Z,3.77
2017-10-06T12:40:05.577Z,4.23
2017-10-06T12:42:32.407Z,4.43
2017-10-06T12:44:59.001Z,4.53
2017-10-06T12:47:25.621Z,4.60
2017-10-06T12:49:52.219Z,5.10
2017-10-06T12:52:18.850Z,4.67
2017-10-06T12:54:45.444Z,4.97
2017-10-06T12:57:12.045Z,5.13
2017-10-06T12:59:38.663Z,4.40
2017-10-06T13:02:05.272Z,4.57
2017-10-06T13:04:31.888Z,4.60
2017-10-06T13:06:58.492Z,4.50
2017-10-06T13:09:25.114Z,3.90
2017-10-06T13:11:51.751Z,4.37
2017-10-06T13:14:18.340Z,4.10
2017-10-06T13:16:44.937Z,3.83
2017-10-06T13:19:11.576Z,3.43
2017-10-06T13:21:38.164Z,3.80
2017-10-06T13:24:04.784Z,4.13
2017-10-06T13:26:31.376Z,4.00
2017-10-06T13:28:57.973Z,4.07
2017-10-06T13:31:24.609Z,3.97
2017-10-06T13:33:51.206Z,3.93
2017-10-06T13:36:17.845Z,4.50
2017-10-06T13:38:44.449Z,3.77
2017-10-06T13:41:11.087Z,3.80
2017-10-06T13:43:37.684Z,3.93
2017-10-06T13:46:04.292Z,4.40
2017-10-06T13:48:30.921Z,4.23
2017-10-06T13:50:57.541Z,4.23
2017-10-06T13:53:24.132Z,4.20
2017-10-06T13:55:50.734Z,4.30
2017-10-06T13:58:17.362Z,4.93
2017-10-06T14:00:43.982Z,5.20
2017-10-06T14:03:10.564Z,5.23
2017-10-06T14:05:37.183Z,5.43
2017-10-06T14:08:03.777Z,5.13
2017-10-06T14:10:30.404Z,5.00
2017-10-06T14:12:57.039Z,6.00
2017-10-06T14:15:23.624Z,6.00
2017-10-06T14:17:50.239Z,6.10
2017-10-06T14:20:16.840Z,6.27
2017-10-06T14:22:43.466Z,5.37
2017-10-06T14:25:10.061Z,6.30
2017-10-06T14:27:36.654Z,6.17
2017-10-06T14:30:03.273Z,6.10
2017-10-06T14:32:29.874Z,6.50
2017-10-06T14:34:56.573Z,7.40
2017-10-06T14:37:23.161Z,6.93
2017-10-06T14:39:49.776Z,6.93
2017-10-06T14:42:16.397Z,6.07
2017-10-06T14:44:42.990Z,6.30
2017-10-06T14:47:09.740Z,6.10
2017-10-06T14:49:36.342Z,6.23
2017-10-06T14:52:02.969Z,5.43
2017-10-06T14:54:29.577Z,6.27
2017-10-06T14:56:56.197Z,6.80
2017-10-06T14:59:22.808Z,7.27
2017-10-06T15:01:49.420Z,7.00
2017-10-06T15:04:16.045Z,6.83
2017-10-06T15:06:42.669Z,6.70
2017-10-06T15:09:09.278Z,5.80
2017-10-06T15:11:35.912Z,6.83
2017-10-06T15:14:02.538Z,7.53
2017-10-06T15:16:29.164Z,6.80
2017-10-06T15:18:55.769Z,5.53
2017-10-06T15:21:22.366Z,6.67
2017-10-06T15:23:48.981Z,6.03
2017-10-06T15:26:15.590Z,6.90
2017-10-06T15:28:42.223Z,7.00
2017-10-06T15:31:08.849Z,5.57
2017-10-06T15:33:35.481Z,6.10
2017-10-06T15:36:02.082Z,6.10
2017-10-06T15:38:28.709Z,6.20
2017-10-06T15:40:55.309Z,5.77
2017-10-06T15:43:21.900Z,7.17
2017-10-06T15:45:48.517Z,5.30
2017-10-06T15:48:15.110Z,4.60
2017-10-06T15:50:41.746Z,4.83
2017-10-06T15:53:08.321Z,5.33
2017-10-06T15:55:34.957Z,4.97
2017-10-06T15:58:01.549Z,4.60
2017-10-06T16:00:28.149Z,4.77
2017-10-06T16:02:54.773Z,3.93
2017-10-06T16:05:21.416Z,5.27
2017-10-06T16:07:48.017Z,4.67
2017-10-06T16:10:14.666Z,4.10
2017-10-06T16:12:41.258Z,5.67
2017-10-06T16:15:07.853Z,5.20
2017-10-06T16:17:34.468Z,5.80
2017-10-06T16:20:01.062Z,4.90
2017-10-06T16:22:27.677Z,4.90
2017-10-06T16:24:54.293Z,5.27
2017-10-06T16:27:20.877Z,5.03
2017-10-06T16:29:47.524Z,4.50
2017-10-06T16:32:14.109Z,4.27
2017-10-06T16:34:40.706Z,3.70
2017-10-06T16:37:07.328Z,3.50
2017-10-06T16:39:33.923Z,3.40
2017-10-06T16:42:00.532Z,4.00
2017-10-06T16:44:27.144Z,3.57
2017-10-06T16:46:53.748Z,3.70
2017-10-06T16:49:20.371Z,3.20
2017-10-06T16:51:46.993Z,3.83
2017-10-06T16:54:13.586Z,3.50
2017-10-06T16:56:40.251Z,3.50
2017-10-06T16:59:06.863Z,3.33
2017-10-06T17:01:33.500Z,3.10
2017-10-06T17:04:00.120Z,3.27
2017-10-06T17:06:26.715Z,3.43
2017-10-06T17:08:53.328Z,3.87
2017-10-06T17:11:20.851Z,3.13
2017-10-06T17:13:47.445Z,3.73
2017-10-06T17:16:14.079Z,3.97
2017-10-06T17:18:40.672Z,3.70
2017-10-06T17:21:07.267Z,4.43
2017-10-06T17:23:33.893Z,4.10
2017-10-06T17:26:00.492Z,3.80
2017-10-06T17:28:27.113Z,4.03
2017-10-06T17:30:53.749Z,4.40
2017-10-06T17:33:20.344Z,4.97
2017-10-06T17:35:46.961Z,5.10
2017-10-06T17:38:13.587Z,4.53
2017-10-06T17:40:40.228Z,4.93
2017-10-06T17:43:06.863Z,4.73
2017-10-06T17:45:33.458Z,4.80
2017-10-06T17:48:00.069Z,4.30
2017-10-06T17:50:26.669Z,4.30
2017-10-06T17:52:53.293Z,4.40
2017-10-06T17:55:19.898Z,4.80
2017-10-06T17:57:46.515Z,5.33
2017-10-06T18:00:13.150Z,5.23
2017-10-06T18:02:39.750Z,4.77
2017-10-06T18:05:06.366Z,4.70
2017-10-06T18:07:32.987Z,4.13
2017-10-06T18:09:59.581Z,4.87
2017-10-06T18:12:26.199Z,4.70
2017-10-06T18:14:52.829Z,4.50
2017-10-06T18:17:19.463Z,3.83
2017-10-06T18:19:46.077Z,4.27
2017-10-06T18:22:12.710Z,4.17
2017-10-06T18:24:39.322Z,4.23
2017-10-06T18:27:05.949Z,4.33
2017-10-06T18:29:32.591Z,4.37
2017-10-06T18:31:59.225Z,4.70
2017-10-06T18:34:25.834Z,4.50
2017-10-06T18:36:52.426Z,4.60
2017-10-06T18:39:19.065Z,4.90
2017-10-06T18:41:45.670Z,4.97
2017-10-06T18:44:12.277Z,5.17
2017-10-06T18:46:38.904Z,4.97
2017-10-06T18:49:05.515Z,5.03
2017-10-06T18:51:32.158Z,5.13
2017-10-06T18:53:58.765Z,5.03
2017-10-06T18:56:25.383Z,5.23
2017-10-06T18:58:52.003Z,4.73
2017-10-06T19:01:18.598Z,4.70
2017-10-06T19:03:45.288Z,4.90
2017-10-06T19:06:11.881Z,5.13
2017-10-06T19:08:38.513Z,4.97
2017-10-06T19:11:05.135Z,5.03
2017-10-06T19:13:31.809Z,5.20
2017-10-06T19:15:58.425Z,5.03
2017-10-06T19:18:25.060Z,4.83
2017-10-06T19:20:51.685Z,5.70
2017-10-06T19:23:18.313Z,5.60
2017-10-06T19:25:44.975Z,6.17
2017-10-06T19:28:11.580Z,5.37
2017-10-06T19:30:38.227Z,5.60
2017-10-06T19:33:04.833Z,4.60
2017-10-06T19:35:31.470Z,5.40
2017-10-06T19:37:58.083Z,5.73
2017-10-06T19:40:24.720Z,5.30
2017-10-06T19:42:51.337Z,5.60
2017-10-06T19:45:17.937Z,4.63
2017-10-06T19:47:44.581Z,5.27
2017-10-06T19:50:11.237Z,4.83
2017-10-06T19:52:37.846Z,4.67
2017-10-06T19:55:04.441Z,4.60
2017-10-06T19:57:31.062Z,4.67
2017-10-06T19:59:57.673Z,4.00
2017-10-06T20:02:24.301Z,4.80
2017-10-06T20:04:50.939Z,5.00
2017-10-06T20:07:17.561Z,4.70
2017-10-06T20:09:44.178Z,4.57
2017-10-06T20:12:10.804Z,4.73
2017-10-06T20:14:37.397Z,4.90
2017-10-06T20:17:04.037Z,4.87
2017-10-06T20:19:30.651Z,4.67
2017-10-06T20:21:57.278Z,5.23
2017-10-06T20:24:23.895Z,5.27
2017-10-06T20:26:50.496Z,5.17
2017-10-06T20:29:17.155Z,4.83
2017-10-06T20:31:43.787Z,4.60
2017-10-06T20:34:10.401Z,4.47
2017-10-06T20:36:37.025Z,4.50
2017-10-06T20:39:03.621Z,4.53
2017-10-06T20:41:30.272Z,4.30
2017-10-06T20:43:56.882Z,5.07
2017-10-06T20:46:23.485Z,5.00
2017-10-06T20:48:50.105Z,5.20
2017-10-06T20:51:16.729Z,4.87
2017-10-06T20:53:43.361Z,4.50
2017-10-06T20:56:09.991Z,4.50
2017-10-06T20:58:36.624Z,4.67
2017-10-06T21:01:03.273Z,3.57
2017-10-06T21:03:29.878Z,4.23
2017-10-06T21:05:56.479Z,4.00
2017-10-06T21:08:23.109Z,4.93
2017-10-06T21:10:49.707Z,4.77
2017-10-06T21:13:16.338Z,5.10
2017-10-06T21:15:42.933Z,5.00
2017-10-06T21:18:09.561Z,5.07
2017-10-06T21:20:36.166Z,4.47
2017-10-06T21:23:02.766Z,5.50
2017-10-06T21:25:29.407Z,5.23
2017-10-06T21:27:55.989Z,5.07
2017-10-06T21:30:22.590Z,4.73
2017-10-06T21:32:49.205Z,5.63
2017-10-06T21:35:15.825Z,5.23
2017-10-06T21:37:42.438Z,4.97
2017-10-06T21:40:09.049Z,5.47
2017-10-06T21:42:35.692Z,5.23
2017-10-06T21:45:02.325Z,5.03
2017-10-06T21:47:28.921Z,6.00
2017-10-06T21:49:55.556Z,5.03
2017-10-06T21:52:22.144Z,5.30
2017-10-06T21:54:48.768Z,5.17
2017-10-06T21:57:15.396Z,5.47
2017-10-06T21:59:41.999Z,4.83
2017-10-06T22:02:08.600Z,5.33
2017-10-06T22:04:35.228Z,5.70
2017-10-06T22:07:01.829Z,5.30
2017-10-06T22:09:28.425Z,5.20
2017-10-06T22:11:55.052Z,4.67
2017-10-06T22:14:21.647Z,5.00
2017-10-06T22:16:48.259Z,5.03
2017-10-06T22:19:14.853Z,5.33
2017-10-06T22:21:41.489Z,5.30
2017-10-06T22:24:08.089Z,4.83
2017-10-06T22:26:34.685Z,5.33
2017-10-06T22:29:01.302Z,4.90
2017-10-06T22:31:27.889Z,6.53
2017-10-06T22:33:54.511Z,4.87
2017-10-06T22:36:21.105Z,4.93
2017-10-06T22:38:47.716Z,5.23
2017-10-06T22:41:14.357Z,5.27
2017-10-06T22:43:40.958Z,5.20
2017-10-06T22:46:07.556Z,5.50
2017-10-06T22:48:34.184Z,4.83
2017-10-06T22:51:00.798Z,5.07
2017-10-06T22:53:27.380Z,4.77
2017-10-06T22:55:54.093Z,5.10
2017-10-06T22:58:20.705Z,5.47
2017-10-06T23:00:47.311Z,4.73
2017-10-06T23:03:13.951Z,5.80
2017-10-06T23:05:40.577Z,5.67
2017-10-06T23:08:07.170Z,5.30
2017-10-06T23:10:33.770Z,5.13
2017-10-06T23:13:00.382Z,4.87
2017-10-06T23:15:26.972Z,5.40
2017-10-06T23:17:53.602Z,5.40
2017-10-06T23:20:20.196Z,5.77
2017-10-06T23:22:46.788Z,5.07
2017-10-06T23:25:13.413Z,5.27
2017-10-06T23:27:40.005Z,5.27
2017-10-06T23:30:06.597Z,5.30
2017-10-06T23:32:33.208Z,5.43
2017-10-06T23:34:59.817Z,5.40
2017-10-06T23:37:26.444Z,5.10
2017-10-06T23:39:53.041Z,4.80
2017-10-06T23:42:19.659Z,5.10
2017-10-06T23:44:46.256Z,5.80
2017-10-06T23:47:12.851Z,4.90
2017-10-06T23:49:39.458Z,5.47
2017-10-06T23:52:06.052Z,5.20
2017-10-06T23:54:32.674Z,5.23
2017-10-06T23:56:59.264Z,5.10
2017-10-06T23:59:25.869Z,4.90
